Time;durP1;ratioP1;P1;durP2;ratioP2;P2;SDS_P1;SDS_P2;PMS_P1;PMS_P2;Temp;Humidity;BMP_temperature;BMP_pressure;BME280_temperature;BME280_humidity;BME280_pressure;Samples;Min_cycle;Max_cycle;Signal;HPM_P1;HPM_P2
2021/10/30 00:00:55;;;;;;;38.40;19.27;;;;;;;5.57;76.33;102491.69;1751872;81;21469;-75
2021/10/30 00:03:22;;;;;;;40.85;19.17;;;;;;;5.55;76.51;102496.04;1745076;82;20904;-75
2021/10/30 00:05:50;;;;;;;39.53;18.52;;;;;;;5.53;76.60;102486.94;1745171;82;20877;-75
2021/10/30 00:08:18;;;;;;;41.23;27.13;;;;;;;5.53;76.72;102489.53;1745178;81;20885;-74
2021/10/30 00:10:47;;;;;;;66.85;41.92;;;;;;;5.52;76.70;102482.62;1745070;82;20949;-74
2021/10/30 00:13:14;;;;;;;52.50;31.95;;;;;;;5.50;76.57;102491.33;1744660;82;21035;-74
2021/10/30 00:15:42;;;;;;;46.45;26.20;;;;;;;5.48;76.62;102486.56;1744674;82;20893;-73
2021/10/30 00:18:09;;;;;;;52.43;28.35;;;;;;;5.47;76.54;102490.03;1744597;82;21327;-75
2021/10/30 00:20:36;;;;;;;67.45;29.05;;;;;;;5.44;76.40;102483.12;1744540;81;21146;-74
2021/10/30 00:23:03;;;;;;;44.67;23.87;;;;;;;5.38;76.35;102487.95;1744648;80;20905;-74
2021/10/30 00:25:30;;;;;;;40.15;22.95;;;;;;;5.37;76.38;102481.45;1744936;82;20933;-73
2021/10/30 00:27:57;;;;;;;41.90;24.63;;;;;;;5.36;76.39;102482.34;1744508;80;21047;-75
2021/10/30 00:30:24;;;;;;;44.85;22.27;;;;;;;5.34;76.30;102481.04;1744951;81;20952;-74
2021/10/30 00:32:51;;;;;;;47.62;25.48;;;;;;;5.33;76.31;102481.05;1744469;80;21129;-74
2021/10/30 00:35:18;;;;;;;46.28;23.32;;;;;;;5.30;76.21;102480.64;1744841;82;20917;-75
2021/10/30 00:37:45;;;;;;;47.58;24.02;;;;;;;5.29;76.18;102485.42;1744609;81;20956;-74
2021/10/30 00:40:12;;;;;;;41.23;23.83;;;;;;;5.28;76.18;102488.89;1744977;82;21422;-73
2021/10/30 00:42:40;;;;;;;43.60;24.23;;;;;;;5.28;76.07;102486.73;1744577;82;21315;-74
2021/10/30 00:45:07;;;;;;;52.10;26.02;;;;;;;5.26;76.13;102490.64;1744875;82;21549;-74
2021/10/30 00:47:34;;;;;;;51.40;24.20;;;;;;;5.25;76.14;102491.97;1744451;81;20956;-74
2021/10/30 00:50:01;;;;;;;50.95;24.80;;;;;;;5.23;76.15;102497.17;1744793;80;21408;-74
2021/10/30 00:52:31;;;;;;;41.83;24.30;;;;;;;5.19;76.15;102493.72;1744560;81;20886;-74
2021/10/30 00:54:58;;;;;;;39.88;23.57;;;;;;;5.16;76.16;102494.20;1744914;82;21474;-74
2021/10/30 00:57:28;;;;;;;42.43;22.48;;;;;;;5.12;76.05;102489.44;1744540;82;21124;-73
2021/10/30 00:59:55;;;;;;;39.48;23.87;;;;;;;5.08;76.03;102486.44;1744717;81;21492;-75
2021/10/30 01:02:22;;;;;;;41.68;21.73;;;;;;;5.07;76.13;102491.22;1744485;82;20932;-75
2021/10/30 01:04:49;;;;;;;50.38;25.12;;;;;;;5.04;76.12;102488.63;1744546;80;21354;-74
2021/10/30 01:07:16;;;;;;;51.40;23.25;;;;;;;5.03;76.20;102486.91;1744644;82;20884;-74
2021/10/30 01:09:43;;;;;;;43.75;23.90;;;;;;;5.01;76.18;102489.10;1744629;82;22146;-74
2021/10/30 01:12:11;;;;;;;51.23;25.70;;;;;;;4.97;76.15;102488.25;1744578;81;20924;-74
2021/10/30 01:14:39;;;;;;;48.73;23.67;;;;;;;4.93;76.22;102486.09;1744666;82;20972;-74
2021/10/30 01:17:06;;;;;;;50.33;24.30;;;;;;;4.92;76.27;102488.28;1744579;81;21412;-75
2021/10/30 01:19:34;;;;;;;39.15;23.32;;;;;;;4.91;76.22;102489.58;1744557;81;20881;-75
2021/10/30 01:22:02;;;;;;;48.10;23.12;;;;;;;4.88;76.29;102483.97;1744509;82;21167;-75
2021/10/30 01:24:29;;;;;;;47.30;21.35;;;;;;;4.86;76.21;102492.20;1744574;81;20944;-73
2021/10/30 01:26:55;;;;;;;48.28;22.10;;;;;;;4.84;76.29;102486.59;1744893;80;20925;-74
2021/10/30 01:29:23;;;;;;;47.20;21.05;;;;;;;4.82;76.38;102490.94;1744530;82;21340;-74
2021/10/30 01:31:50;;;;;;;40.03;20.77;;;;;;;4.81;76.31;102489.23;1744653;81;20909;-73
2021/10/30 01:34:17;;;;;;;42.05;22.25;;;;;;;4.80;76.36;102498.73;1744605;82;21552;-73
2021/10/30 01:36:44;;;;;;;43.10;23.35;;;;;;;4.82;76.50;102498.30;1744802;82;20933;-74
2021/10/30 01:39:11;;;;;;;53.68;24.27;;;;;;;4.85;76.46;102498.73;1744740;82;20896;-73
2021/10/30 01:41:39;;;;;;;54.35;26.17;;;;;;;4.84;76.42;102497.84;1744593;82;20936;-75
2021/10/30 01:44:06;;;;;;;45.63;25.30;;;;;;;4.83;76.38;102499.18;1744783;82;21441;-75
2021/10/30 01:46:34;;;;;;;44.53;25.80;;;;;;;4.83;76.44;102497.87;1744555;82;21158;-75
2021/10/30 01:49:01;;;;;;;50.20;24.57;;;;;;;4.83;76.36;102506.98;1744780;82;20896;-75
2021/10/30 01:51:28;;;;;;;53.80;28.05;;;;;;;4.81;76.35;102510.02;1744510;81;21465;-74
2021/10/30 01:53:57;;;;;;;55.48;26.80;;;;;;;4.78;76.35;102509.61;1744746;82;20922;-73
2021/10/30 01:56:24;;;;;;;49.00;26.45;;;;;;;4.77;76.41;102513.06;1744883;81;21521;-74
2021/10/30 01:58:51;;;;;;;50.28;27.07;;;;;;;4.77;76.51;102517.81;1744577;82;21147;-74
2021/10/30 02:01:18;;;;;;;56.75;25.88;;;;;;;4.77;76.53;102516.52;1744497;80;21446;-75
2021/10/30 02:03:46;;;;;;;48.73;26.02;;;;;;;4.77;76.61;102515.21;1744578;81;20861;-74
2021/10/30 02:06:14;;;;;;;52.08;24.65;;;;;;;4.78;76.63;102512.20;1744467;82;20948;-74
2021/10/30 02:08:42;;;;;;;54.10;26.55;;;;;;;4.79;76.63;102512.62;1744513;80;20925;-74
2021/10/30 02:11:08;;;;;;;53.05;27.30;;;;;;;4.82;76.64;102505.23;1744750;81;21175;-74
2021/10/30 02:13:35;;;;;;;63.90;29.20;;;;;;;4.81;76.55;102512.62;1744781;81;20976;-74
2021/10/30 02:16:02;;;;;;;55.17;29.10;;;;;;;4.81;76.52;102505.67;1744597;82;21363;-75
2021/10/30 02:18:30;;;;;;;63.68;30.82;;;;;;;4.82;76.51;102511.28;1744561;82;21319;-73
2021/10/30 02:20:57;;;;;;;57.43;29.52;;;;;;;4.82;76.58;102506.53;1744494;82;20929;-74
2021/10/30 02:23:24;;;;;;;58.48;31.30;;;;;;;4.82;76.62;102504.79;1744824;81;21106;-74
2021/10/30 02:25:51;;;;;;;64.27;31.12;;;;;;;4.85;76.63;102503.49;1744457;82;20924;-76
2021/10/30 02:28:18;;;;;;;66.62;33.75;;;;;;;4.86;76.70;102504.34;1744826;82;20988;-74
2021/10/30 02:30:44;;;;;;;69.00;34.92;;;;;;;4.88;76.79;102508.66;1744358;82;20921;-75
2021/10/30 02:33:12;;;;;;;74.12;34.40;;;;;;;4.89;76.81;102511.70;1744649;82;20889;-76
2021/10/30 02:35:38;;;;;;;70.20;32.67;;;;;;;4.92;76.90;102514.27;1744472;82;21278;-73
2021/10/30 02:38:05;;;;;;;80.50;38.65;;;;;;;4.96;76.90;102515.13;1744508;82;20883;-75
2021/10/30 02:40:33;;;;;;;79.12;39.10;;;;;;;4.99;76.89;102519.00;1744446;81;20877;-73
2021/10/30 02:42:59;;;;;;;84.25;39.73;;;;;;;5.01;76.84;102520.30;1744507;82;20944;-75
2021/10/30 02:45:26;;;;;;;75.40;36.75;;;;;;;5.03;76.87;102519.41;1744579;82;20929;-75
2021/10/30 02:47:53;;;;;;;73.20;37.23;;;;;;;5.06;76.87;102534.13;1744775;82;21727;-75
2021/10/30 02:50:21;;;;;;;71.45;36.60;;;;;;;5.08;76.90;102533.69;1744399;81;20937;-75
2021/10/30 02:52:48;;;;;;;61.30;34.67;;;;;;;5.09;76.89;102530.20;1744852;82;20964;-76
2021/10/30 02:55:14;;;;;;;68.00;34.60;;;;;;;5.10;76.84;102538.00;1744516;82;21012;-76
2021/10/30 02:57:47;;;;;;;66.02;34.30;;;;;;;5.10;76.88;102541.90;1744466;82;21101;-74
2021/10/30 03:00:15;;;;;;;62.27;33.80;;;;;;;5.12;76.84;102541.45;1744483;81;21229;-78
2021/10/30 03:02:43;;;;;;;64.62;33.60;;;;;;;5.14;76.73;102542.75;1744339;81;21375;-76
2021/10/30 03:05:10;;;;;;;65.03;33.45;;;;;;;5.13;76.85;102543.61;1744595;82;20865;-74
2021/10/30 03:07:38;;;;;;;61.15;31.25;;;;;;;5.16;77.03;102545.77;1744675;82;20924;-73
2021/10/30 03:10:07;;;;;;;59.23;31.12;;;;;;;5.18;77.02;102546.62;1744476;81;21003;-74
2021/10/30 03:12:34;;;;;;;61.37;33.30;;;;;;;5.23;76.92;102539.23;1744641;82;21801;-74
2021/10/30 03:15:01;;;;;;;65.70;32.58;;;;;;;5.22;76.54;102545.29;1744403;81;20917;-76
2021/10/30 03:17:28;;;;;;;67.50;31.68;;;;;;;5.22;76.93;102538.79;1744497;81;21595;-74
2021/10/30 03:19:54;;;;;;;77.78;33.53;;;;;;;5.27;77.04;102542.21;1744395;82;20960;-74
2021/10/30 03:22:21;;;;;;;86.40;33.45;;;;;;;5.31;76.93;102542.63;1744406;82;20845;-75
2021/10/30 03:24:48;;;;;;;76.87;37.17;;;;;;;5.33;76.69;102543.03;1744578;81;21091;-75
2021/10/30 03:27:16;;;;;;;104.17;45.80;;;;;;;5.32;76.43;102545.67;1744579;82;20944;-74
2021/10/30 03:29:43;;;;;;;85.00;45.45;;;;;;;5.28;76.24;102536.16;1744395;81;21418;-76
2021/10/30 03:32:10;;;;;;;91.53;45.45;;;;;;;5.20;76.17;102534.89;1744586;82;20909;-75
2021/10/30 03:34:38;;;;;;;94.52;45.90;;;;;;;5.14;76.27;102543.61;1744560;82;20972;-75
2021/10/30 03:37:05;;;;;;;79.55;44.20;;;;;;;5.10;76.43;102542.34;1744404;81;21997;-75
2021/10/30 03:39:32;;;;;;;92.97;46.83;;;;;;;5.07;76.57;102546.24;1744360;80;20913;-75
2021/10/30 03:42:00;;;;;;;90.55;50.17;;;;;;;5.04;76.60;102551.03;1744504;82;20924;-74
2021/10/30 03:44:27;;;;;;;95.28;46.68;;;;;;;5.03;76.75;102549.31;1744377;82;21454;-75
2021/10/30 03:46:54;;;;;;;95.40;51.85;;;;;;;5.03;76.87;102541.52;1744783;81;20829;-74
2021/10/30 03:49:21;;;;;;;101.02;52.83;;;;;;;5.05;76.90;102544.97;1744573;82;21151;-74
2021/10/30 03:51:48;;;;;;;98.90;53.08;;;;;;;5.06;76.87;102540.62;1744963;82;21548;-75
2021/10/30 03:54:15;;;;;;;96.72;50.33;;;;;;;5.08;76.84;102550.59;1744666;82;20976;-75
2021/10/30 03:56:42;;;;;;;103.17;54.77;;;;;;;5.09;76.79;102555.79;1745018;82;20893;-74
2021/10/30 03:59:09;;;;;;;94.75;50.00;;;;;;;5.10;76.75;102554.05;1744597;82;20881;-74
2021/10/30 04:01:36;;;;;;;102.92;54.53;;;;;;;5.10;76.75;102553.59;1746000;81;21131;-74
2021/10/30 04:04:03;;;;;;;97.65;51.77;;;;;;;5.12;76.73;102554.91;1757824;81;20900;-74
2021/10/30 04:06:31;;;;;;;97.62;51.70;;;;;;;5.14;76.77;102559.66;1758035;81;20947;-74
2021/10/30 04:08:57;;;;;;;97.25;50.90;;;;;;;5.15;76.63;102561.38;1757931;81;20967;-76
2021/10/30 04:11:26;;;;;;;109.12;52.93;;;;;;;5.17;76.59;102564.83;1757929;81;20976;-76
2021/10/30 04:13:53;;;;;;;107.45;53.50;;;;;;;5.16;76.54;102556.17;1757961;81;21044;-73
2021/10/30 04:16:20;;;;;;;117.50;57.00;;;;;;;5.17;76.43;102566.13;1757833;81;20880;-75
2021/10/30 04:18:47;;;;;;;148.90;62.88;;;;;;;5.16;76.35;102573.52;1757946;80;20928;-74
2021/10/30 04:21:14;;;;;;;139.72;59.65;;;;;;;5.12;76.32;102576.56;1758092;80;21454;-74
2021/10/30 04:23:41;;;;;;;143.22;62.70;;;;;;;5.09;76.24;102571.80;1757969;81;20924;-74
2021/10/30 04:26:08;;;;;;;136.07;61.53;;;;;;;5.04;76.15;102573.13;1758252;81;21493;-76
2021/10/30 04:28:35;;;;;;;122.65;61.05;;;;;;;5.02;76.21;102575.31;1757901;80;20881;-75
2021/10/30 04:31:07;;;;;;;145.95;68.12;;;;;;;4.98;76.25;102576.64;1757874;81;20841;-74
2021/10/30 04:33:34;;;;;;;144.43;65.55;;;;;;;4.95;76.39;102573.19;1758472;81;21390;-74
2021/10/30 04:36:03;;;;;;;149.65;70.25;;;;;;;4.91;76.56;102569.75;1758278;81;20916;-75
2021/10/30 04:38:31;;;;;;;146.80;68.85;;;;;;;4.93;76.71;102578.38;1757863;81;21155;-75
2021/10/30 04:40:58;;;;;;;148.72;70.12;;;;;;;4.94;76.85;102572.77;1758226;81;20935;-75
2021/10/30 04:43:25;;;;;;;154.55;74.00;;;;;;;4.99;76.97;102573.59;1758140;81;21496;-77
2021/10/30 04:45:52;;;;;;;145.65;75.42;;;;;;;5.04;77.02;102574.88;1757836;80;21043;-77
2021/10/30 04:48:19;;;;;;;113.92;60.67;;;;;;;5.06;76.69;102575.29;1758311;80;20936;-76
2021/10/30 04:50:47;;;;;;;115.12;60.70;;;;;;;5.03;76.41;102574.46;1757949;81;21154;-76
2021/10/30 04:53:14;;;;;;;113.57;57.85;;;;;;;4.95;76.49;102586.19;1757856;81;21355;-74
2021/10/30 04:55:41;;;;;;;113.32;59.03;;;;;;;4.88;76.70;102587.09;1758199;81;20884;-75
2021/10/30 04:58:08;;;;;;;115.85;59.38;;;;;;;4.82;76.98;102582.77;1757925;81;20944;-75
2021/10/30 05:00:35;;;;;;;114.52;60.10;;;;;;;4.83;77.19;102581.91;1757892;81;21022;-76
2021/10/30 05:03:02;;;;;;;152.35;71.22;;;;;;;4.84;77.31;102585.38;1750273;81;21500;-75
2021/10/30 05:05:28;;;;;;;188.47;77.65;;;;;;;4.86;77.86;102590.13;1744438;82;20928;-75
2021/10/30 05:07:55;;;;;;;175.35;74.85;;;;;;;4.95;78.09;102583.14;1744589;80;21394;-75
2021/10/30 05:10:22;;;;;;;146.15;72.17;;;;;;;5.03;78.03;102585.72;1744578;82;20935;-76
2021/10/30 05:12:50;;;;;;;143.25;66.53;;;;;;;5.10;77.91;102593.91;1744563;81;20889;-75
2021/10/30 05:15:17;;;;;;;123.20;61.18;;;;;;;5.17;77.74;102597.34;1744524;82;21449;-76
2021/10/30 05:17:45;;;;;;;120.08;64.03;;;;;;;5.22;77.67;102599.91;1744511;80;21015;-75
2021/10/30 05:20:12;;;;;;;122.45;62.67;;;;;;;5.24;77.46;102595.56;1744477;81;20900;-76
2021/10/30 05:22:38;;;;;;;126.53;63.48;;;;;;;5.28;77.55;102598.14;1744948;82;21422;-76
2021/10/30 05:25:07;;;;;;;130.45;65.97;;;;;;;5.32;77.55;102595.09;1744642;82;20952;-77
2021/10/30 05:27:33;;;;;;;112.35;60.23;;;;;;;5.37;77.47;102603.28;1744755;82;21116;-76
2021/10/30 05:30:00;;;;;;;124.35;65.12;;;;;;;5.42;77.35;102604.55;1744662;81;20897;-76
2021/10/30 05:32:27;;;;;;;127.60;66.12;;;;;;;5.48;77.17;102603.66;1744624;82;21425;-77
2021/10/30 05:35:08;;;;;;;123.40;66.00;;;;;;;5.50;76.92;102605.81;1696587;81;21541;-77
2021/10/30 05:37:40;;;;;;;131.67;67.17;;;;;;;5.53;76.76;102602.73;1742140;81;20897;-78
2021/10/30 05:40:10;;;;;;;123.67;62.60;;;;;;;5.57;76.66;102603.59;1744644;82;21517;-76
2021/10/30 05:42:37;;;;;;;127.80;68.55;;;;;;;5.60;76.51;102603.14;1744493;80;20975;-78
2021/10/30 05:45:05;;;;;;;127.20;65.47;;;;;;;5.66;76.57;102598.77;1744787;81;20873;-76
2021/10/30 05:47:33;;;;;;;123.75;61.95;;;;;;;5.73;76.44;102604.34;1744564;81;20865;-76
2021/10/30 05:50:00;;;;;;;135.93;64.62;;;;;;;5.77;76.22;102610.80;1744813;81;20950;-77
2021/10/30 05:52:27;;;;;;;140.70;65.97;;;;;;;5.80;76.04;102609.50;1744735;80;21499;-76
2021/10/30 05:54:54;;;;;;;158.40;69.72;;;;;;;5.85;75.95;102608.58;1744439;80;20901;-75
2021/10/30 05:57:21;;;;;;;146.80;65.95;;;;;;;5.88;75.76;102610.73;1744198;82;20909;-75
2021/10/30 05:59:48;;;;;;;133.43;65.87;;;;;;;5.91;75.53;102609.83;1744628;82;20897;-76
2021/10/30 06:02:15;;;;;;;129.32;67.10;;;;;;;5.92;75.40;102611.12;1745755;81;21102;-77
2021/10/30 06:04:42;;;;;;;123.65;64.35;;;;;;;5.92;75.35;102611.58;1757927;81;21497;-74
2021/10/30 06:07:10;;;;;;;124.40;65.47;;;;;;;5.92;75.47;102610.27;1757907;81;21011;-75
2021/10/30 06:09:37;;;;;;;116.53;63.23;;;;;;;5.95;75.50;102615.03;1757927;80;20979;-77
2021/10/30 06:12:05;;;;;;;128.42;62.30;;;;;;;5.97;75.38;102613.28;1757816;80;20948;-75
2021/10/30 06:14:32;;;;;;;118.37;66.45;;;;;;;5.99;75.46;102607.62;1757873;80;20924;-76
2021/10/30 06:17:00;;;;;;;121.17;62.85;;;;;;;6.07;75.52;102614.08;1757874;80;21116;-76
2021/10/30 06:19:27;;;;;;;120.42;63.00;;;;;;;6.14;75.60;102619.66;1757741;81;20940;-75
2021/10/30 06:21:54;;;;;;;119.70;64.75;;;;;;;6.25;75.61;102620.86;1757818;81;20896;-76
2021/10/30 06:24:21;;;;;;;116.67;62.50;;;;;;;6.34;75.37;102621.21;1757836;81;21029;-77
2021/10/30 06:26:48;;;;;;;135.65;65.62;;;;;;;6.39;75.17;102618.97;1757838;80;20932;-76
2021/10/30 06:29:16;;;;;;;140.20;65.60;;;;;;;6.46;75.05;102609.78;1757834;80;21156;-75
2021/10/30 06:31:43;;;;;;;134.20;67.50;;;;;;;6.51;75.00;102611.89;1757863;81;20924;-76
2021/10/30 06:34:10;;;;;;;120.80;62.70;;;;;;;6.60;75.00;102618.30;1757630;81;21027;-75
2021/10/30 06:36:37;;;;;;;124.20;63.13;;;;;;;6.66;74.75;102609.12;1757455;80;20967;-75
2021/10/30 06:39:04;;;;;;;114.55;64.35;;;;;;;6.68;74.77;102614.33;1757962;81;21334;-77
2021/10/30 06:41:33;;;;;;;116.97;64.35;;;;;;;6.75;74.81;102618.58;1758193;81;21090;-76
2021/10/30 06:44:00;;;;;;;108.72;58.68;;;;;;;6.79;74.88;102618.97;1758018;81;20936;-82
2021/10/30 06:46:28;;;;;;;102.32;60.25;;;;;;;6.87;75.14;102614.53;1758029;81;20936;-82
2021/10/30 06:48:56;;;;;;;97.88;61.00;;;;;;;7.01;75.26;102616.52;1758027;81;20849;-80
2021/10/30 06:51:24;;;;;;;100.87;59.18;;;;;;;7.09;75.19;102619.01;1757903;80;20892;-80
2021/10/30 06:53:51;;;;;;;100.10;61.60;;;;;;;7.16;74.92;102615.88;1758170;81;21128;-80
2021/10/30 06:56:19;;;;;;;114.42;68.70;;;;;;;7.24;75.07;102621.86;1758222;80;20967;-78
2021/10/30 06:58:46;;;;;;;109.30;66.33;;;;;;;7.30;74.81;102623.54;1758297;80;21054;-81
2021/10/30 07:01:14;;;;;;;106.32;63.00;;;;;;;7.36;74.71;102624.73;1757937;80;20999;-83
2021/10/30 07:03:44;;;;;;;108.85;66.12;;;;;;;7.49;74.82;102630.19;1757993;80;20924;-82
2021/10/30 07:06:11;;;;;;;111.05;67.97;;;;;;;7.64;74.57;102630.42;1757947;80;21433;-81
2021/10/30 07:08:40;;;;;;;110.12;66.12;;;;;;;7.75;74.18;102628.95;1757807;81;20920;-81
2021/10/30 07:11:07;;;;;;;116.30;70.10;;;;;;;7.87;74.36;102629.63;1758059;81;20943;-81
2021/10/30 07:13:33;;;;;;;117.50;70.95;;;;;;;7.99;74.04;102624.62;1758253;81;20931;-81
2021/10/30 07:16:01;;;;;;;121.47;72.95;;;;;;;8.09;73.79;102625.33;1758204;80;21394;-82
2021/10/30 07:18:28;;;;;;;109.07;70.75;;;;;;;8.17;73.58;102620.84;1758327;81;21103;-83
2021/10/30 07:20:55;;;;;;;117.67;71.67;;;;;;;8.31;73.49;102625.81;1757868;80;21350;-81
2021/10/30 07:23:21;;;;;;;106.92;68.12;;;;;;;8.41;73.08;102619.56;1758240;81;21422;-80
2021/10/30 07:25:49;;;;;;;109.80;65.62;;;;;;;8.52;72.95;102623.29;1757992;81;20976;-81
2021/10/30 07:28:15;;;;;;;108.55;67.35;;;;;;;8.69;73.02;102625.56;1758441;80;21042;-80
2021/10/30 07:30:42;;;;;;;113.10;68.25;;;;;;;8.89;72.79;102626.47;1758331;80;21099;-78
2021/10/30 07:33:09;;;;;;;113.90;70.08;;;;;;;9.01;72.28;102622.30;1758239;81;20933;-82
2021/10/30 07:35:37;;;;;;;108.25;66.85;;;;;;;9.03;71.88;102623.58;1757962;80;20991;-76
2021/10/30 07:38:04;;;;;;;101.67;64.77;;;;;;;9.07;71.53;102626.10;1758023;80;20931;-75
2021/10/30 07:40:31;;;;;;;106.90;66.65;;;;;;;9.05;71.05;102620.48;1758134;80;21375;-76
2021/10/30 07:42:58;;;;;;;116.00;69.20;;;;;;;8.99;71.09;102617.54;1758056;81;21148;-74
2021/10/30 07:45:26;;;;;;;119.80;72.45;;;;;;;8.98;71.72;102622.38;1758025;81;21042;-75
2021/10/30 07:47:54;;;;;;;137.30;74.77;;;;;;;9.03;71.74;102619.20;1758216;80;20927;-74
2021/10/30 07:50:21;;;;;;;111.85;69.30;;;;;;;9.09;71.69;102610.34;1757871;80;20896;-75
2021/10/30 07:52:49;;;;;;;123.67;74.32;;;;;;;9.13;71.62;102609.38;1757943;81;20936;-76
2021/10/30 07:55:15;;;;;;;121.45;77.25;;;;;;;9.21;71.48;102611.39;1757989;81;21504;-74
2021/10/30 07:57:44;;;;;;;109.75;74.70;;;;;;;9.26;71.42;102612.14;1757852;81;20920;-76
2021/10/30 08:00:12;;;;;;;120.67;74.53;;;;;;;9.28;71.24;102616.91;1758048;81;20873;-76
2021/10/30 08:02:43;;;;;;;114.15;73.07;;;;;;;9.30;71.06;102605.95;1757888;80;20944;-78
2021/10/30 08:05:11;;;;;;;109.35;69.85;;;;;;;9.31;70.92;102608.97;1744734;81;20889;-77
2021/10/30 08:07:38;;;;;;;106.27;71.17;;;;;;;9.32;70.95;102608.54;1744767;82;21170;-79
2021/10/30 08:10:06;;;;;;;100.78;67.45;;;;;;;9.27;70.94;102611.69;1744481;80;20951;-77
2021/10/30 08:12:33;;;;;;;105.07;69.10;;;;;;;9.22;71.08;102610.94;1744661;82;20857;-77
2021/10/30 08:15:01;;;;;;;110.25;68.02;;;;;;;9.18;71.13;102607.55;1744471;82;21398;-76
2021/10/30 08:17:31;;;;;;;100.58;67.72;;;;;;;9.22;71.57;102613.11;1744773;82;21476;-77
2021/10/30 08:19:59;;;;;;;92.82;64.45;;;;;;;9.28;71.81;102607.73;1744736;82;21207;-76
2021/10/30 08:22:26;;;;;;;102.97;66.17;;;;;;;9.39;71.91;102612.73;1744499;82;20873;-76
2021/10/30 08:24:53;;;;;;;98.42;69.27;;;;;;;9.44;71.87;102605.63;1744717;82;20830;-78
2021/10/30 08:27:20;;;;;;;98.03;68.22;;;;;;;9.52;71.93;102608.08;1744506;81;20928;-80
2021/10/30 08:29:47;;;;;;;108.57;73.40;;;;;;;9.60;71.88;102603.95;1744641;82;20873;-76
2021/10/30 08:32:14;;;;;;;103.60;72.35;;;;;;;9.70;71.82;102602.84;1744687;81;21147;-78
2021/10/30 08:34:41;;;;;;;102.65;71.07;;;;;;;9.83;71.85;102604.27;1744472;82;20870;-78
2021/10/30 08:37:09;;;;;;;102.95;66.62;;;;;;;10.15;71.94;102601.27;1744814;82;21512;-77
2021/10/30 08:39:37;;;;;;;96.15;63.13;;;;;;;10.74;71.65;102596.17;1744600;82;20944;-76
2021/10/30 08:42:04;;;;;;;96.90;65.85;;;;;;;11.59;70.27;102602.31;1744721;82;20884;-77
2021/10/30 08:44:37;;;;;;;94.55;64.12;;;;;;;12.48;68.21;102601.08;1744728;81;21777;-76
2021/10/30 08:47:02;;;;;;;92.67;62.38;;;;;;;13.32;65.13;102592.22;1744475;80;20928;-77
2021/10/30 08:49:29;;;;;;;99.50;61.98;;;;;;;14.11;63.09;102597.30;1744635;82;20873;-75
2021/10/30 08:51:56;;;;;;;87.08;61.77;;;;;;;14.81;60.55;102588.05;1744509;81;21008;-78
2021/10/30 08:54:23;;;;;;;76.55;59.33;;;;;;;16.11;56.08;102587.89;1744564;81;20853;-78
2021/10/30 08:56:50;;;;;;;79.40;58.70;;;;;;;16.11;56.08;102587.89;1744674;81;21156;-76
2021/10/30 08:59:18;;;;;;;78.30;55.85;;;;;;;16.54;54.41;102588.27;1744702;82;20928;-78
2021/10/30 09:01:50;;;;;;;76.02;55.83;;;;;;;16.98;53.06;102590.31;1687573;82;20999;-76
2021/10/30 09:04:18;;;;;;;73.35;54.50;;;;;;;17.44;51.82;102578.92;1751649;81;20955;-76
2021/10/30 09:07:01;;;;;;;61.73;50.05;;;;;;;17.93;50.57;102577.39;1758243;81;20896;-78
2021/10/30 09:09:31;;;;;;;65.17;46.73;;;;;;;18.51;49.60;102580.95;1758492;81;20972;-89
2021/10/30 09:12:01;;;;;;;60.12;44.27;;;;;;;19.03;47.36;102578.98;1759521;81;20975;-90
2021/10/30 09:14:31;;;;;;;55.88;43.68;;;;;;;19.39;46.12;102575.75;1760247;81;21034;-87
2021/10/30 09:17:15;;;;;;;54.10;41.68;;;;;;;19.70;44.91;102580.38;1759654;81;20920;-87
2021/10/30 09:19:52;;;;;;;51.88;40.85;;;;;;;19.79;44.53;102570.44;1760122;80;20944;-86
2021/10/30 09:22:21;;;;;;;49.88;40.70;;;;;;;20.05;43.97;102569.11;1759732;80;21506;-85
2021/10/30 09:25:07;;;;;;;50.25;41.37;;;;;;;20.32;43.22;102570.81;1758148;81;20932;-79
2021/10/30 09:27:55;;;;;;;46.95;37.53;;;;;;;20.48;42.72;102565.64;1758870;80;20993;-79
2021/10/30 09:30:35;;;;;;;39.88;34.43;;;;;;;20.79;41.91;102565.30;1757895;80;20971;-78
2021/10/30 09:33:05;;;;;;;39.10;34.88;;;;;;;20.97;41.49;102558.61;1758098;81;20876;-80
2021/10/30 09:35:46;;;;;;;38.13;31.97;;;;;;;21.33;41.23;102555.51;1757974;81;21198;-78
2021/10/30 09:38:39;;;;;;;40.73;30.82;;;;;;;21.72;40.63;102553.01;1758144;81;21315;-84
2021/10/30 09:41:32;;;;;;;32.13;27.52;;;;;;;22.24;39.25;102554.80;1757315;81;20971;-79
2021/10/30 09:44:16;;;;;;;33.57;26.87;;;;;;;22.72;38.35;102553.20;1758572;81;20983;-80
2021/10/30 09:46:53;;;;;;;35.52;28.70;;;;;;;23.30;37.96;102541.34;1756917;80;20951;-80
2021/10/30 09:49:32;;;;;;;18.62;15.55;;;;;;;23.76;36.92;102542.84;1758871;81;21078;-91
2021/10/30 09:52:10;;;;;;;14.47;11.73;;;;;;;24.26;34.67;102540.30;1759338;80;20885;-88
2021/10/30 09:54:47;;;;;;;9.35;8.45;;;;;;;24.67;32.92;102539.80;1758425;81;20908;-85
2021/10/30 09:57:18;;;;;;;6.22;5.45;;;;;;;24.88;30.85;102530.80;1758430;81;21323;-87
2021/10/30 09:59:45;;;;;;;6.22;5.65;;;;;;;25.00;30.23;102526.50;1721523;82;21390;-85
2021/10/30 10:02:12;;;;;;;6.15;5.55;;;;;;;25.22;29.14;102528.60;1721880;83;21158;-81
2021/10/30 10:04:40;;;;;;;9.68;6.20;;;;;;;25.27;28.76;102525.48;1714591;82;21402;-78
2021/10/30 10:07:10;;;;;;;7.97;6.80;;;;;;;25.17;28.78;102525.47;1708822;84;20968;-78
2021/10/30 10:09:38;;;;;;;9.20;8.30;;;;;;;25.05;28.43;102519.87;1708775;84;20972;-91
2021/10/30 10:12:12;;;;;;;7.42;6.40;;;;;;;24.84;27.99;102515.48;1710632;84;21042;-90
2021/10/30 10:14:42;;;;;;;10.75;7.87;;;;;;;24.57;28.24;102519.67;1689156;84;21077;-88
2021/10/30 10:17:10;;;;;;;11.10;7.62;;;;;;;24.34;28.57;102519.48;1709806;84;20880;-88
2021/10/30 10:19:37;;;;;;;9.13;8.13;;;;;;;24.27;29.08;102521.02;1709805;82;20987;-91
2021/10/30 10:22:06;;;;;;;13.62;7.87;;;;;;;24.30;28.59;102516.25;1709518;84;20931;-83
2021/10/30 10:24:37;;;;;;;10.10;8.80;;;;;;;24.35;29.17;102520.70;1709879;83;20907;-93
2021/10/30 10:27:07;;;;;;;10.65;7.37;;;;;;;24.57;29.00;102518.33;1709687;82;21161;-90
2021/10/30 10:29:47;;;;;;;7.70;6.97;;;;;;;24.72;28.98;102512.09;1709567;84;20896;-86
2021/10/30 10:32:23;;;;;;;6.50;6.00;;;;;;;24.94;28.25;102504.24;1744844;81;21039;-92
2021/10/30 10:34:52;;;;;;;7.22;6.33;;;;;;;25.08;28.62;102500.78;1745579;81;21169;-90
2021/10/30 10:37:23;;;;;;;11.10;8.35;;;;;;;25.04;28.14;102498.89;1745376;81;20877;-91
2021/10/30 10:39:57;;;;;;;10.48;7.15;;;;;;;24.97;28.57;102493.23;1744697;82;21166;-81
2021/10/30 10:42:42;;;;;;;8.73;7.80;;;;;;;24.97;28.38;102499.95;1744617;82;20897;-81
2021/10/30 10:45:15;;;;;;;10.28;9.13;;;;;;;24.95;28.51;102500.59;1744984;82;20924;-81
2021/10/30 10:47:49;;;;;;;10.00;9.00;;;;;;;24.75;28.41;102494.86;1744967;82;21418;-77
2021/10/30 10:50:32;;;;;;;10.15;9.08;;;;;;;24.47;28.75;102492.43;1745122;80;21046;-77
2021/10/30 10:53:15;;;;;;;12.30;9.38;;;;;;;24.17;29.29;102494.19;1744555;82;21195;-75
2021/10/30 10:55:51;;;;;;;13.00;9.10;;;;;;;23.75;29.62;102488.42;1744358;81;20975;-76
2021/10/30 10:58:18;;;;;;;12.60;9.95;;;;;;;23.20;30.05;102481.05;1744623;80;20945;-74
2021/10/30 11:01:04;;;;;;;12.47;9.58;;;;;;;22.69;30.72;102491.06;1744556;82;20925;-76
2021/10/30 11:03:31;;;;;;;10.60;8.65;;;;;;;22.28;31.50;102488.11;1744626;81;20896;-74
2021/10/30 11:06:00;;;;;;;11.45;8.60;;;;;;;21.89;31.36;102486.73;1757602;80;21023;-76
2021/10/30 11:08:30;;;;;;;10.28;8.05;;;;;;;21.38;31.97;102485.27;1650054;83;21096;-75
2021/10/30 11:11:12;;;;;;;9.73;8.05;;;;;;;20.87;32.57;102477.06;1722041;83;20999;-76
2021/10/30 11:14:01;;;;;;;10.30;8.58;;;;;;;20.34;33.21;102487.63;1722019;83;20979;-75
2021/10/30 11:19:08;;;;;;;10.75;9.03;;;;;;;19.26;35.19;102483.07;1816553;79;23110;-75
2021/10/30 11:21:38;;;;;;;9.90;8.88;;;;;;;18.79;35.64;102478.61;1789780;80;21618;-76
2021/10/30 11:24:19;;;;;;;12.85;8.33;;;;;;;18.47;36.30;102478.47;1784564;80;21812;-75